Time;durP1;ratioP1;P1;durP2;ratioP2;P2;SDS_P1;SDS_P2;PMS_P1;PMS_P2;Temp;Humidity;BMP_temperature;BMP_pressure;BME280_temperature;BME280_humidity;BME280_pressure;Samples;Min_cycle;Max_cycle;Signal;HPM_P1;HPM_P2
2021/07/09 00:01:09;;;;;;;1999.90;999.90;;;19.20;99.90;;;;;;5098326;28;20427;-82
2021/07/09 00:03:36;;;;;;;1999.90;999.90;;;19.10;99.90;;;;;;5096412;28;20501;-82
2021/07/09 00:06:02;;;;;;;1999.90;999.90;;;19.10;99.90;;;;;;5078656;28;20504;-82
2021/07/09 00:08:28;;;;;;;1999.90;999.90;;;19.00;99.90;;;;;;5097408;28;20471;-82
2021/07/09 00:10:53;;;;;;;1999.90;999.90;;;19.00;99.90;;;;;;5097806;28;20892;-82
2021/07/09 00:13:19;;;;;;;1999.90;999.90;;;19.00;99.90;;;;;;5097516;28;20168;-82
2021/07/09 00:15:45;;;;;;;1999.90;999.90;;;19.00;99.90;;;;;;5101317;28;20428;-82
2021/07/09 00:18:11;;;;;;;1999.90;999.90;;;19.00;99.90;;;;;;5102391;28;20171;-82
2021/07/09 00:20:42;;;;;;;1999.90;999.90;;;19.00;99.90;;;;;;5100596;28;20195;-82
2021/07/09 00:23:08;;;;;;;1999.90;999.90;;;19.10;99.90;;;;;;5101260;28;20547;-82
2021/07/09 00:25:36;;;;;;;1999.90;999.90;;;19.00;99.90;;;;;;5082576;28;20432;-82
2021/07/09 00:28:02;;;;;;;1999.90;999.90;;;19.00;99.90;;;;;;5101688;28;20275;-82
2021/07/09 00:30:28;;;;;;;1999.90;999.90;;;19.00;99.90;;;;;;5102146;28;20804;-83
2021/07/09 00:33:02;;;;;;;1999.90;999.90;;;19.00;99.90;;;;;;5100113;28;20417;-82
2021/07/09 00:35:28;;;;;;;1999.90;999.90;;;19.00;99.90;;;;;;5101910;28;20186;-82
2021/07/09 00:37:54;;;;;;;1999.90;999.90;;;19.00;99.90;;;;;;5101863;28;20403;-82
2021/07/09 00:40:20;;;;;;;1999.90;999.90;;;19.00;99.90;;;;;;5101562;28;20606;-82
2021/07/09 00:42:46;;;;;;;1999.90;999.90;;;19.00;99.90;;;;;;5100090;28;20702;-82
2021/07/09 00:45:12;;;;;;;1999.90;999.90;;;19.00;99.90;;;;;;5100659;28;20429;-82
2021/07/09 00:47:42;;;;;;;1999.90;999.90;;;19.00;99.90;;;;;;5083353;28;20514;-83
2021/07/09 00:50:11;;;;;;;1999.90;999.90;;;18.90;99.90;;;;;;5101254;28;20413;-82
2021/07/09 00:52:37;;;;;;;1999.90;999.90;;;19.00;99.90;;;;;;5101471;28;20768;-82
2021/07/09 00:55:05;;;;;;;1999.90;999.90;;;19.00;99.90;;;;;;5100616;28;20410;-82
2021/07/09 00:57:31;;;;;;;1999.90;999.90;;;19.00;99.90;;;;;;5100379;28;20412;-82
2021/07/09 00:59:59;;;;;;;1999.90;999.90;;;18.90;99.90;;;;;;5099417;28;20406;-82
2021/07/09 01:02:26;;;;;;;1999.90;999.90;;;19.00;99.90;;;;;;5098797;28;20448;-82
2021/07/09 01:04:56;;;;;;;1999.90;999.90;;;18.90;99.90;;;;;;5100473;28;20935;-83
2021/07/09 01:07:24;;;;;;;1999.90;999.90;;;18.90;99.90;;;;;;5099566;28;21009;-82
2021/07/09 01:09:51;;;;;;;1999.90;999.90;;;19.00;99.90;;;;;;5082057;28;20772;-82
2021/07/09 01:15:52;;;;;;;1999.90;999.90;;;18.90;99.90;;;;;;5038484;28;20396;-82
2021/07/09 01:18:29;;;;;;;1999.90;999.90;;;18.90;99.90;;;;;;5013022;28;20422;-83
2021/07/09 01:24:28;;;;;;;1999.90;999.90;;;18.90;99.90;;;;;;5028012;28;20507;-81
2021/07/09 01:27:06;;;;;;;1999.90;999.90;;;18.90;99.90;;;;;;5036118;28;20424;-81
2021/07/09 01:30:10;;;;;;;1999.90;999.90;;;18.90;99.90;;;;;;5036188;28;20494;-81
2021/07/09 01:35:11;;;;;;;1999.90;999.90;;;19.00;99.90;;;;;;5119062;22;20585;-83
2021/07/09 01:37:37;;;;;;;1999.90;999.90;;;19.00;99.90;;;;;;5101801;28;20405;-83
2021/07/09 01:40:06;;;;;;;1999.90;999.90;;;19.00;99.90;;;;;;5102201;28;20398;-83
2021/07/09 01:42:32;;;;;;;1999.90;999.90;;;18.90;99.90;;;;;;5101817;28;20559;-83
2021/07/09 01:44:57;;;;;;;1999.90;999.90;;;18.90;99.90;;;;;;5102155;28;20462;-83
2021/07/09 01:47:23;;;;;;;1999.90;999.90;;;18.90;99.90;;;;;;5100194;28;20194;-83
2021/07/09 01:50:00;;;;;;;1999.90;999.90;;;18.90;99.90;;;;;;5100636;28;20530;-83
2021/07/09 01:52:27;;;;;;;1999.90;999.90;;;18.90;99.90;;;;;;5082845;28;20630;-83
2021/07/09 01:54:54;;;;;;;1999.90;999.90;;;18.90;99.90;;;;;;5082139;28;20413;-83
2021/07/09 01:57:20;;;;;;;1999.90;999.90;;;18.90;99.90;;;;;;5099808;28;20762;-83
2021/07/09 01:59:46;;;;;;;1999.90;999.90;;;18.90;99.90;;;;;;5100379;28;20401;-83
2021/07/09 02:02:13;;;;;;;1999.90;999.90;;;18.80;99.90;;;;;;5100593;28;20494;-83
2021/07/09 02:04:46;;;;;;;1999.90;999.90;;;18.80;99.90;;;;;;5100026;28;20795;-83
2021/07/09 02:07:12;;;;;;;1999.90;999.90;;;18.80;99.90;;;;;;5099169;28;20428;-83
2021/07/09 02:09:43;;;;;;;1999.90;999.90;;;18.80;99.90;;;;;;5099585;28;20908;-83
2021/07/09 02:12:09;;;;;;;1999.90;999.90;;;18.80;99.90;;;;;;5100951;28;20164;-83
2021/07/09 02:14:34;;;;;;;1999.90;999.90;;;18.70;99.90;;;;;;5100726;28;20476;-83
2021/07/09 02:17:00;;;;;;;1999.90;999.90;;;18.70;99.90;;;;;;5099013;28;20436;-83
2021/07/09 02:19:26;;;;;;;1999.90;999.90;;;18.70;99.90;;;;;;5100759;28;20163;-83
2021/07/09 02:21:53;;;;;;;1999.90;999.90;;;18.70;99.90;;;;;;5100925;28;20167;-83
2021/07/09 02:24:19;;;;;;;1999.90;999.90;;;18.70;99.90;;;;;;5082544;28;20174;-82
2021/07/09 02:26:44;;;;;;;1999.90;999.90;;;18.60;99.90;;;;;;5100646;28;20417;-83
2021/07/09 02:29:10;;;;;;;1999.90;999.90;;;18.60;99.90;;;;;;5099478;28;20163;-82
2021/07/09 02:31:36;;;;;;;1999.90;999.90;;;18.60;99.90;;;;;;5098356;28;20170;-83
2021/07/09 02:34:01;;;;;;;1999.90;999.90;;;18.60;99.90;;;;;;5099110;28;20179;-83
2021/07/09 02:36:27;;;;;;;1999.90;999.90;;;18.60;99.90;;;;;;5099781;28;20643;-83
2021/07/09 02:38:53;;;;;;;1999.90;999.90;;;18.60;99.90;;;;;;5098171;28;20251;-83
2021/07/09 02:41:19;;;;;;;1999.90;999.90;;;18.60;99.90;;;;;;5099804;28;20163;-83
2021/07/09 02:43:45;;;;;;;1999.90;999.90;;;18.60;99.90;;;;;;5099653;28;20187;-83
2021/07/09 02:46:10;;;;;;;1999.90;999.90;;;18.60;99.90;;;;;;5098231;28;20440;-83
2021/07/09 02:48:36;;;;;;;1999.90;999.90;;;18.60;99.90;;;;;;5098191;28;20630;-83
2021/07/09 02:51:02;;;;;;;1999.90;999.90;;;18.60;99.90;;;;;;5099663;28;20630;-83
2021/07/09 02:53:27;;;;;;;1999.90;999.90;;;18.50;99.90;;;;;;5081469;28;20583;-83
2021/07/09 02:55:55;;;;;;;1999.90;999.90;;;18.50;99.90;;;;;;5099234;28;20420;-83
2021/07/09 02:58:21;;;;;;;1999.90;999.90;;;18.60;99.90;;;;;;5099952;28;20160;-83
2021/07/09 03:00:47;;;;;;;1999.90;999.90;;;18.50;99.90;;;;;;5098279;28;20416;-83
2021/07/09 03:03:12;;;;;;;1999.90;999.90;;;18.50;99.90;;;;;;5099627;28;20199;-83
2021/07/09 03:05:38;;;;;;;1999.90;999.90;;;18.40;99.90;;;;;;5099931;28;20329;-82
2021/07/09 03:08:04;;;;;;;1999.90;999.90;;;18.40;99.90;;;;;;5099558;28;20552;-83
2021/07/09 03:10:30;;;;;;;1999.90;999.90;;;18.40;99.90;;;;;;5097989;28;20183;-83
2021/07/09 03:12:56;;;;;;;1999.90;999.90;;;18.40;99.90;;;;;;5099104;28;20415;-83
2021/07/09 03:15:21;;;;;;;1999.90;999.90;;;18.40;99.90;;;;;;5098848;28;20163;-83
2021/07/09 03:17:47;;;;;;;1999.90;999.90;;;18.40;99.90;;;;;;5100583;28;20171;-83
2021/07/09 03:20:13;;;;;;;1999.90;999.90;;;18.40;99.90;;;;;;5098008;28;20196;-83
2021/07/09 03:22:39;;;;;;;1999.90;999.90;;;18.40;99.90;;;;;;5097607;28;20195;-83
2021/07/09 03:25:08;;;;;;;1999.90;999.90;;;18.40;99.90;;;;;;5099046;28;20433;-82
2021/07/09 03:27:34;;;;;;;1999.90;999.90;;;18.40;99.90;;;;;;5080773;28;20421;-83
2021/07/09 03:30:00;;;;;;;1999.90;999.90;;;18.40;99.90;;;;;;5099316;28;20444;-83
2021/07/09 03:32:26;;;;;;;1999.90;999.90;;;18.40;99.90;;;;;;5098625;28;20401;-83
2021/07/09 03:34:51;;;;;;;1999.90;999.90;;;18.40;99.90;;;;;;5098510;28;20182;-83
2021/07/09 03:37:17;;;;;;;1999.90;999.90;;;18.30;99.90;;;;;;5098640;28;20199;-83
2021/07/09 03:39:43;;;;;;;1999.90;999.90;;;18.30;99.90;;;;;;5098568;28;20163;-83
2021/07/09 03:42:09;;;;;;;1999.90;999.90;;;18.30;99.90;;;;;;5098276;28;20216;-83
2021/07/09 03:44:34;;;;;;;1999.90;999.90;;;18.40;99.90;;;;;;5098353;28;20432;-83
2021/07/09 03:47:00;;;;;;;1999.90;999.90;;;18.30;99.90;;;;;;5098672;28;20183;-83
2021/07/09 03:49:26;;;;;;;1999.90;999.90;;;18.30;99.90;;;;;;5100179;28;20246;-83
2021/07/09 03:51:51;;;;;;;1999.90;999.90;;;18.30;99.90;;;;;;5102839;28;20197;-83
2021/07/09 03:54:17;;;;;;;1999.90;999.90;;;18.30;99.90;;;;;;5102378;28;20503;-83
2021/07/09 03:56:43;;;;;;;1999.90;999.90;;;18.30;99.90;;;;;;5084201;28;20201;-83
2021/07/09 03:59:09;;;;;;;1999.90;999.90;;;18.30;99.90;;;;;;5101280;28;20209;-83
2021/07/09 04:01:35;;;;;;;1999.90;999.90;;;18.30;99.90;;;;;;5102272;28;20179;-83
2021/07/09 04:04:00;;;;;;;1999.90;999.90;;;18.30;99.90;;;;;;5102466;28;20448;-82
2021/07/09 04:06:26;;;;;;;1999.90;999.90;;;18.30;99.90;;;;;;5102624;28;20191;-83
2021/07/09 04:08:51;;;;;;;1999.90;999.90;;;18.30;99.90;;;;;;5102154;28;20160;-83
2021/07/09 04:11:17;;;;;;;1999.90;999.90;;;18.30;99.90;;;;;;5100619;28;20190;-83
2021/07/09 04:13:43;;;;;;;1999.90;999.90;;;18.30;99.90;;;;;;5101979;28;20216;-83
2021/07/09 04:16:09;;;;;;;1999.90;999.90;;;18.30;99.90;;;;;;5101998;28;20179;-83
2021/07/09 04:18:34;;;;;;;1999.90;999.90;;;18.30;99.90;;;;;;5101770;28;20247;-83
2021/07/09 04:21:01;;;;;;;1999.90;999.90;;;18.40;99.90;;;;;;5101676;28;20164;-83
2021/07/09 04:23:26;;;;;;;1999.90;999.90;;;18.30;99.90;;;;;;5101648;28;20433;-83
2021/07/09 04:25:52;;;;;;;1999.90;999.90;;;18.40;99.90;;;;;;5101717;28;20422;-83
2021/07/09 04:28:18;;;;;;;1999.90;999.90;;;18.40;99.90;;;;;;5101929;28;20247;-83
2021/07/09 04:30:43;;;;;;;1999.90;999.90;;;18.30;99.90;;;;;;5101707;28;20165;-82
2021/07/09 04:33:09;;;;;;;1999.90;999.90;;;18.40;99.90;;;;;;5101642;28;20183;-83
2021/07/09 04:35:35;;;;;;;1999.90;999.90;;;18.40;99.90;;;;;;5101001;28;20183;-83
2021/07/09 04:38:01;;;;;;;1999.90;999.90;;;18.40;99.90;;;;;;5101310;28;20626;-83
2021/07/09 04:40:27;;;;;;;1999.90;999.90;;;18.40;99.90;;;;;;5100304;28;20417;-83
2021/07/09 04:42:52;;;;;;;1999.90;999.90;;;18.30;99.90;;;;;;5099815;28;20448;-83
2021/07/09 04:45:18;;;;;;;1999.90;999.90;;;18.30;99.90;;;;;;5101529;28;20518;-83
2021/07/09 04:47:44;;;;;;;1999.90;999.90;;;18.30;99.90;;;;;;5101477;28;20642;-83
2021/07/09 04:50:10;;;;;;;1999.90;999.90;;;18.30;99.90;;;;;;5100024;28;20170;-83
2021/07/09 04:52:36;;;;;;;1999.90;999.90;;;18.30;99.90;;;;;;5101357;28;20170;-83
2021/07/09 04:55:02;;;;;;;1999.90;999.90;;;18.40;99.90;;;;;;5099913;28;20492;-82
2021/07/09 04:57:28;;;;;;;1999.90;999.90;;;18.30;99.90;;;;;;5101168;28;20546;-83
2021/07/09 04:59:53;;;;;;;1999.90;999.90;;;18.40;99.90;;;;;;5099451;28;20409;-83
2021/07/09 05:02:20;;;;;;;1999.90;999.90;;;18.30;99.90;;;;;;5099816;28;20718;-83
2021/07/09 05:04:45;;;;;;;1999.90;999.90;;;18.30;99.90;;;;;;5101093;28;20183;-83
2021/07/09 05:07:11;;;;;;;1999.90;999.90;;;18.40;99.90;;;;;;5099672;28;20417;-83
2021/07/09 05:09:37;;;;;;;1999.90;999.90;;;18.30;99.90;;;;;;5082911;28;20206;-83
2021/07/09 05:12:03;;;;;;;1999.90;999.90;;;18.30;99.90;;;;;;5098991;28;20205;-83
2021/07/09 05:14:29;;;;;;;1999.90;999.90;;;18.30;99.90;;;;;;5101463;28;20159;-83
2021/07/09 05:16:55;;;;;;;1999.90;999.90;;;18.30;99.90;;;;;;5100921;28;20452;-82
2021/07/09 05:19:21;;;;;;;1999.90;999.90;;;18.30;99.90;;;;;;5100742;28;20190;-83
2021/07/09 05:21:46;;;;;;;1999.90;999.90;;;18.20;99.90;;;;;;5083093;28;20409;-82
2021/07/09 05:24:13;;;;;;;1999.90;999.90;;;18.30;99.90;;;;;;5102291;28;20757;-82
2021/07/09 05:26:39;;;;;;;1999.90;999.90;;;18.30;99.90;;;;;;5102810;28;20654;-82
2021/07/09 05:29:05;;;;;;;1999.90;999.90;;;18.30;99.90;;;;;;5103351;28;20400;-82
2021/07/09 05:31:35;;;;;;;1999.90;999.90;;;18.20;99.90;;;;;;5102081;28;20433;-83
2021/07/09 05:34:01;;;;;;;1999.90;999.90;;;18.30;99.90;;;;;;5103960;28;20191;-82
2021/07/09 05:36:27;;;;;;;1999.90;999.90;;;18.30;99.90;;;;;;5102567;28;20428;-82
2021/07/09 05:38:53;;;;;;;1999.90;999.90;;;18.30;99.90;;;;;;5102579;28;20398;-83
2021/07/09 05:41:18;;;;;;;1999.90;999.90;;;18.30;99.90;;;;;;5100933;28;20168;-82
2021/07/09 05:43:44;;;;;;;1999.90;999.90;;;18.30;99.90;;;;;;5101411;28;20198;-82
2021/07/09 05:46:11;;;;;;;1999.90;999.90;;;18.30;99.90;;;;;;5101501;28;20183;-82
2021/07/09 05:48:36;;;;;;;1999.90;999.90;;;18.30;99.90;;;;;;5101890;28;20166;-82
2021/07/09 05:51:02;;;;;;;1999.90;999.90;;;18.30;99.90;;;;;;5101505;28;20797;-82
2021/07/09 05:53:30;;;;;;;1999.90;999.90;;;18.30;99.90;;;;;;5101783;28;20169;-82
2021/07/09 05:55:56;;;;;;;1999.90;999.90;;;18.30;99.90;;;;;;5101432;28;20455;-82
2021/07/09 05:58:22;;;;;;;1999.90;999.90;;;18.30;99.90;;;;;;5102146;28;20408;-82
2021/07/09 06:00:48;;;;;;;1999.90;999.90;;;18.30;99.90;;;;;;5099687;28;20417;-81
2021/07/09 06:03:14;;;;;;;1999.90;999.90;;;18.40;99.90;;;;;;5098814;28;20317;-81
2021/07/09 06:05:40;;;;;;;1999.90;999.90;;;18.40;99.90;;;;;;5098311;28;20658;-81
2021/07/09 06:08:07;;;;;;;1999.90;999.90;;;18.50;99.90;;;;;;5098089;28;20828;-82
2021/07/09 06:10:33;;;;;;;1999.90;999.90;;;18.50;99.90;;;;;;5097961;28;20891;-82
2021/07/09 06:12:59;;;;;;;1999.90;999.90;;;18.50;99.90;;;;;;5096558;28;20406;-82
2021/07/09 06:15:26;;;;;;;1999.90;999.90;;;18.50;99.90;;;;;;5098685;28;20413;-82
2021/07/09 06:17:51;;;;;;;1999.90;999.90;;;18.50;99.90;;;;;;5098522;28;20224;-82
2021/07/09 06:20:17;;;;;;;1999.90;999.90;;;18.50;99.90;;;;;;5097026;28;20409;-84
2021/07/09 06:22:44;;;;;;;1999.90;999.90;;;18.50;99.90;;;;;;5098054;28;20707;-84
2021/07/09 06:25:10;;;;;;;1999.90;999.90;;;18.50;99.90;;;;;;5098055;28;20592;-84
2021/07/09 06:27:36;;;;;;;1999.90;999.90;;;18.50;99.90;;;;;;5097930;28;20413;-84
2021/07/09 06:30:02;;;;;;;1999.90;999.90;;;18.50;99.90;;;;;;5098017;28;20401;-84
2021/07/09 06:32:28;;;;;;;1999.90;999.90;;;18.50;99.90;;;;;;5097914;28;20649;-85
2021/07/09 06:34:54;;;;;;;1999.90;999.90;;;18.50;99.90;;;;;;5080147;28;20417;-83
2021/07/09 06:37:19;;;;;;;1999.90;999.90;;;18.60;99.90;;;;;;5098524;28;20709;-82
2021/07/09 06:39:45;;;;;;;1999.90;999.90;;;18.60;99.90;;;;;;5099088;28;20251;-83
2021/07/09 06:42:11;;;;;;;1999.90;999.90;;;18.70;99.90;;;;;;5098846;28;20538;-83
2021/07/09 06:44:36;;;;;;;1999.90;999.90;;;18.60;99.90;;;;;;5099691;28;20151;-84
2021/07/09 06:47:03;;;;;;;1999.90;999.90;;;18.70;99.90;;;;;;5098753;28;20187;-83
2021/07/09 06:49:29;;;;;;;1999.90;999.90;;;18.70;99.90;;;;;;5099128;28;20173;-83
2021/07/09 06:51:54;;;;;;;1999.90;999.90;;;18.70;99.90;;;;;;5097895;28;20473;-83
2021/07/09 06:54:20;;;;;;;1999.90;999.90;;;18.80;99.90;;;;;;5099878;28;20147;-83
2021/07/09 06:56:52;;;;;;;1999.90;999.90;;;18.90;99.90;;;;;;5099142;28;20187;-82
2021/07/09 06:59:17;;;;;;;1999.90;999.90;;;18.90;99.90;;;;;;5097569;28;20518;-83
2021/07/09 07:01:43;;;;;;;1999.90;999.90;;;19.00;99.90;;;;;;5098848;28;20409;-84
2021/07/09 07:04:09;;;;;;;1999.90;999.90;;;19.10;99.90;;;;;;5098787;28;20240;-83
2021/07/09 07:06:36;;;;;;;1999.90;999.90;;;19.10;99.90;;;;;;5098154;28;20274;-83
2021/07/09 07:09:02;;;;;;;1999.90;999.90;;;19.20;99.90;;;;;;5098340;28;20410;-83
2021/07/09 07:11:28;;;;;;;1999.90;999.90;;;19.30;99.90;;;;;;5100018;28;20401;-84
2021/07/09 07:13:54;;;;;;;1999.90;999.90;;;19.30;99.90;;;;;;5099515;28;20910;-83
2021/07/09 07:16:19;;;;;;;1999.90;999.90;;;19.30;99.90;;;;;;5099190;28;20187;-84
2021/07/09 07:18:45;;;;;;;1999.90;999.90;;;19.30;99.90;;;;;;5098832;28;20618;-84
2021/07/09 07:21:11;;;;;;;1999.90;999.90;;;19.40;99.90;;;;;;5098828;28;20174;-84
2021/07/09 07:23:36;;;;;;;1999.90;999.90;;;19.30;99.90;;;;;;5098369;28;20266;-84
2021/07/09 07:26:03;;;;;;;1999.90;999.90;;;19.40;99.90;;;;;;5098943;28;20191;-83
2021/07/09 07:28:28;;;;;;;1999.90;999.90;;;19.30;99.90;;;;;;5099264;28;20187;-84
2021/07/09 07:30:54;;;;;;;1999.90;999.90;;;19.40;99.90;;;;;;5099857;28;20914;-83
2021/07/09 07:33:20;;;;;;;1999.90;999.90;;;19.50;99.90;;;;;;5168750;22;20189;-85
2021/07/09 07:35:45;;;;;;;1999.90;999.90;;;19.50;99.90;;;;;;5094744;28;20179;-85
2021/07/09 07:38:11;;;;;;;1999.90;999.90;;;19.50;99.90;;;;;;5093049;28;20171;-85
2021/07/09 07:40:37;;;;;;;1999.90;999.90;;;19.50;99.90;;;;;;5093017;28;20172;-85
2021/07/09 07:43:05;;;;;;;1999.90;999.90;;;19.60;99.90;;;;;;5092995;28;20202;-85
2021/07/09 07:45:34;;;;;;;1999.90;999.90;;;19.70;99.90;;;;;;5076261;28;20425;-85
2021/07/09 07:48:00;;;;;;;1999.90;999.90;;;19.80;99.90;;;;;;5094255;28;20788;-85
2021/07/09 07:50:27;;;;;;;1999.90;999.90;;;19.90;99.90;;;;;;5094045;28;20402;-85
2021/07/09 07:52:53;;;;;;;1999.90;999.90;;;20.00;99.90;;;;;;5094301;28;20416;-85
2021/07/09 07:55:19;;;;;;;1999.90;999.90;;;20.00;99.90;;;;;;5093897;28;20406;-85
2021/07/09 07:57:45;;;;;;;1999.90;999.90;;;20.10;99.90;;;;;;5093138;28;20428;-85
2021/07/09 08:00:12;;;;;;;1999.90;999.90;;;20.00;99.90;;;;;;5094230;28;20533;-85
2021/07/09 08:02:38;;;;;;;1999.90;999.90;;;20.10;99.90;;;;;;5096138;28;20660;-84
2021/07/09 08:05:05;;;;;;;1999.90;999.90;;;20.10;99.90;;;;;;5078944;28;20916;-86
2021/07/09 08:07:31;;;;;;;1999.90;999.90;;;20.10;99.90;;;;;;5098091;28;20432;-86
2021/07/09 08:09:57;;;;;;;1999.90;999.90;;;20.10;99.90;;;;;;5095846;28;20878;-85
2021/07/09 08:12:23;;;;;;;1999.90;999.90;;;19.90;99.90;;;;;;5096423;28;20160;-85
2021/07/09 08:14:49;;;;;;;1999.90;999.90;;;19.80;99.90;;;;;;5093947;28;20179;-84
2021/07/09 08:17:14;;;;;;;1999.90;999.90;;;19.70;99.90;;;;;;5092231;28;20426;-85
2021/07/09 08:19:40;;;;;;;1999.90;999.90;;;19.70;99.90;;;;;;5093534;28;20168;-85
2021/07/09 08:22:06;;;;;;;1999.90;999.90;;;19.60;99.90;;;;;;5093733;28;20187;-85
2021/07/09 08:24:32;;;;;;;1999.90;999.90;;;19.50;99.90;;;;;;5075865;28;20254;-85
2021/07/09 08:26:57;;;;;;;1999.90;999.90;;;19.40;99.90;;;;;;5093752;28;20425;-85
2021/07/09 08:29:24;;;;;;;1999.90;999.90;;;19.40;99.90;;;;;;5094157;28;20572;-84
2021/07/09 08:31:49;;;;;;;1999.90;999.90;;;19.50;99.90;;;;;;5093504;28;20530;-84
2021/07/09 08:34:15;;;;;;;1999.90;999.90;;;19.60;99.90;;;;;;5093145;28;20423;-84
2021/07/09 08:36:41;;;;;;;1999.90;999.90;;;19.70;99.90;;;;;;5097111;28;20283;-84
2021/07/09 08:39:06;;;;;;;1999.90;999.90;;;19.90;99.90;;;;;;5095929;28;20255;-84
2021/07/09 08:41:33;;;;;;;1999.90;999.90;;;19.90;99.90;;;;;;5097018;28;20163;-85
2021/07/09 08:43:58;;;;;;;1999.90;999.90;;;20.00;99.90;;;;;;5097141;28;20192;-84
2021/07/09 08:46:27;;;;;;;1999.90;999.90;;;20.00;99.90;;;;;;5096838;28;20494;-85
2021/07/09 08:48:54;;;;;;;1999.90;999.90;;;20.00;99.90;;;;;;5097073;28;20430;-85
2021/07/09 08:51:19;;;;;;;1999.90;999.90;;;20.00;99.90;;;;;;5078609;28;20403;-85
2021/07/09 08:53:45;;;;;;;1999.90;999.90;;;20.10;99.90;;;;;;5097004;28;20404;-84
2021/07/09 08:56:11;;;;;;;1999.90;999.90;;;20.00;99.90;;;;;;5097783;28;20228;-85
2021/07/09 08:58:36;;;;;;;1999.90;999.90;;;19.90;99.90;;;;;;5097118;28;20618;-84
2021/07/09 09:01:04;;;;;;;1999.90;999.90;;;19.80;99.90;;;;;;5097022;28;20195;-85
2021/07/09 09:03:30;;;;;;;1999.90;999.90;;;19.80;99.90;;;;;;5078543;28;20201;-84
2021/07/09 09:06:01;;;;;;;1999.90;999.90;;;19.70;99.90;;;;;;5095419;28;20437;-85
2021/07/09 09:08:29;;;;;;;1999.90;999.90;;;19.70;99.90;;;;;;5079410;28;20618;-84
2021/07/09 09:10:58;;;;;;;1999.90;999.90;;;19.70;99.90;;;;;;5079692;28;20764;-84
2021/07/09 09:13:26;;;;;;;1999.90;999.90;;;19.70;99.90;;;;;;5079230;28;20500;-84
2021/07/09 09:16:06;;;;;;;1999.90;999.90;;;19.70;99.90;;;;;;5097028;28;20495;-85
2021/07/09 09:18:56;;;;;;;1999.90;999.90;;;19.70;99.90;;;;;;5096633;28;20451;-85
2021/07/09 09:21:24;;;;;;;1999.90;999.90;;;19.70;99.90;;;;;;5097213;28;20408;-85
2021/07/09 09:24:09;;;;;;;1999.90;999.90;;;19.90;99.90;;;;;;5096348;28;20447;-85
2021/07/09 09:26:53;;;;;;;1999.90;999.90;;;20.00;99.90;;;;;;5096938;28;20413;-85
2021/07/09 09:29:25;;;;;;;1999.90;999.90;;;20.30;99.90;;;;;;5093155;28;20409;-86
2021/07/09 09:31:59;;;;;;;1999.90;999.90;;;20.30;99.90;;;;;;5095267;28;21057;-85
2021/07/09 09:35:01;;;;;;;1999.90;999.90;;;20.50;99.90;;;;;;5096481;28;20444;-85
2021/07/09 09:37:30;;;;;;;1999.90;999.90;;;20.70;99.90;;;;;;5095776;28;20796;-86
2021/07/09 09:39:56;;;;;;;1999.90;999.90;;;20.80;99.90;;;;;;5096389;28;20406;-85
2021/07/09 09:42:25;;;;;;;1999.90;999.90;;;21.00;99.90;;;;;;5095107;28;20441;-85
2021/07/09 09:45:05;;;;;;;1999.90;999.90;;;21.00;99.90;;;;;;5096945;28;20232;-85
2021/07/09 09:47:36;;;;;;;1999.90;999.90;;;21.00;99.90;;;;;;5096194;28;20965;-85
2021/07/09 09:50:13;;;;;;;1999.90;999.90;;;21.00;99.90;;;;;;5097609;28;20488;-85
2021/07/09 09:53:06;;;;;;;1999.90;999.90;;;20.90;99.90;;;;;;5097481;28;20462;-85
2021/07/09 09:55:45;;;;;;;1999.90;999.90;;;20.90;99.90;;;;;;5072992;28;20465;-86
2021/07/09 09:58:22;;;;;;;1999.90;999.90;;;20.90;99.90;;;;;;5095397;28;20430;-85
2021/07/09 10:01:08;;;;;;;1999.90;999.90;;;20.90;99.90;;;;;;5095622;28;20813;-85
2021/07/09 10:03:59;;;;;;;1999.90;999.90;;;21.00;99.90;;;;;;5096917;28;20429;-86
2021/07/09 10:07:17;;;;;;;;;;;;;;;;;;;;;
2021/07/09 10:09:52;;;;;;;1999.90;999.90;;;21.10;99.90;;;;;;5054813;28;20400;-85
2021/07/09 10:12:44;;;;;;;1999.90;999.90;;;21.10;99.90;;;;;;5054277;28;20412;-85
2021/07/09 10:15:19;;;;;;;1999.90;999.90;;;21.10;99.90;;;;;;5051420;28;20450;-85
2021/07/09 10:21:30;;;;;;;1999.90;999.90;;;20.90;99.90;;;;;;5064312;28;20404;-85
2021/07/09 10:24:08;;;;;;;1999.90;999.90;;;21.10;99.90;;;;;;5081634;28;20596;-85
2021/07/09 10:27:06;;;;;;;1999.90;999.90;;;21.30;99.90;;;;;;5095278;28;20429;-85
2021/07/09 10:30:03;;;;;;;1999.90;999.90;;;21.30;99.90;;;;;;5095819;28;20380;-86
2021/07/09 10:33:14;;;;;;;1999.90;999.90;;;21.30;99.90;;;;;;5095273;28;20396;-85
2021/07/09 10:35:48;;;;;;;1999.90;999.90;;;21.30;99.90;;;;;;5075544;28;20436;-86
2021/07/09 10:38:23;;;;;;;1999.90;999.90;;;21.50;99.90;;;;;;5077955;28;20413;-86
2021/07/09 10:41:37;;;;;;;;;;;;;;;;;;;;;
2021/07/09 10:44:39;;;;;;;1999.90;999.90;;;21.60;99.90;;;;;;5093378;28;20972;-85
2021/07/09 10:47:46;;;;;;;1999.90;999.90;;;21.70;99.90;;;;;;5069268;22;20482;-86
2021/07/09 10:53:57;;;;;;;1999.90;999.90;;;21.90;99.90;;;;;;5042514;28;20395;-85
2021/07/09 11:00:20;;;;;;;1999.90;999.90;;;22.00;99.90;;;;;;5073538;28;20467;-85
2021/07/09 11:03:21;;;;;;;1999.90;999.90;;;22.10;99.90;;;;;;5032732;28;20534;-85
2021/07/09 11:05:50;;;;;;;1999.90;999.90;;;22.20;99.90;;;;;;5074011;28;20422;-84
2021/07/09 11:08:31;;;;;;;1999.90;999.90;;;22.30;99.90;;;;;;5077431;28;20928;-84
2021/07/09 11:11:08;;;;;;;1999.90;999.90;;;22.30;99.90;;;;;;5077696;28;20510;-84
2021/07/09 11:13:44;;;;;;;1999.90;999.90;;;22.40;99.90;;;;;;5057164;28;20405;-85
2021/07/09 11:16:38;;;;;;;1999.90;999.90;;;22.60;99.90;;;;;;5056788;28;20438;-86
2021/07/09 11:19:09;;;;;;;1999.90;999.90;;;22.90;99.90;;;;;;5073908;28;20413;-85
2021/07/09 11:21:38;;;;;;;1999.90;999.90;;;23.00;99.90;;;;;;5074659;28;20410;-85
2021/07/09 11:24:16;;;;;;;1999.90;999.90;;;23.10;99.90;;;;;;5076566;28;20445;-86
2021/07/09 11:26:50;;;;;;;1999.90;999.90;;;23.10;99.90;;;;;;5059336;28;20543;-85
2021/07/09 11:29:28;;;;;;;1999.90;999.90;;;23.00;99.90;;;;;;5057214;28;20393;-85
2021/07/09 11:31:59;;;;;;;1999.90;999.90;;;23.10;99.90;;;;;;5058767;28;20414;-85
2021/07/09 11:34:27;;;;;;;1999.90;999.90;;;23.40;99.90;;;;;;5076336;28;20423;-85
2021/07/09 11:36:57;;;;;;;1999.90;999.90;;;23.80;99.90;;;;;;5076305;28;20449;-85
2021/07/09 11:39:37;;;;;;;1999.90;999.90;;;23.80;99.90;;;;;;5058954;28;20447;-85
2021/07/09 11:42:11;;;;;;;1999.90;999.90;;;23.70;99.90;;;;;;5058805;28;20410;-85
2021/07/09 11:44:43;;;;;;;1999.90;999.90;;;23.70;99.90;;;;;;5077386;28;20905;-85
2021/07/09 11:47:11;;;;;;;1999.90;999.90;;;23.70;99.90;;;;;;5060017;28;20437;-85
2021/07/09 11:50:00;;;;;;;1999.90;999.90;;;23.80;99.90;;;;;;5060483;28;20394;-85
2021/07/09 11:52:33;;;;;;;1999.90;999.90;;;23.90;99.90;;;;;;5077928;28;20451;-84
2021/07/09 11:55:00;;;;;;;1999.90;999.90;;;23.80;99.90;;;;;;5076306;28;20395;-84
2021/07/09 11:57:35;;;;;;;1999.90;999.90;;;23.80;99.90;;;;;;5075437;28;20509;-84
2021/07/09 12:00:07;;;;;;;1999.90;999.90;;;23.70;99.90;;;;;;5073789;28;20501;-85
2021/07/09 12:02:33;;;;;;;1999.90;999.90;;;23.80;99.90;;;;;;5075116;28;20422;-84
2021/07/09 12:05:06;;;;;;;1999.90;999.90;;;23.90;99.90;;;;;;5074890;28;20778;-84
2021/07/09 12:07:34;;;;;;;1999.90;999.90;;;24.00;99.90;;;;;;5074083;28;20497;-84
2021/07/09 12:10:20;;;;;;;1999.90;999.90;;;24.00;99.90;;;;;;5076002;28;20455;-84
2021/07/09 12:12:57;;;;;;;1999.90;999.90;;;24.00;99.90;;;;;;5062307;28;20402;-85
2021/07/09 12:15:27;;;;;;;1999.90;999.90;;;23.90;99.90;;;;;;5081287;28;20398;-85
2021/07/09 12:18:00;;;;;;;1999.90;999.90;;;23.90;99.90;;;;;;5080894;28;20403;-84
2021/07/09 12:20:37;;;;;;;1999.90;999.90;;;24.00;99.90;;;;;;5078302;28;20386;-84
2021/07/09 12:23:14;;;;;;;1999.90;999.90;;;24.10;99.90;;;;;;5077557;28;20434;-85
2021/07/09 12:25:47;;;;;;;1999.90;999.90;;;24.10;99.90;;;;;;5079580;28;20414;-85
2021/07/09 12:28:25;;;;;;;1999.90;999.90;;;24.00;99.90;;;;;;5078941;28;20450;-84
2021/07/09 12:30:56;;;;;;;1999.90;999.90;;;23.90;99.90;;;;;;5078179;28;20401;-85
2021/07/09 12:33:29;;;;;;;1999.90;999.90;;;23.90;99.90;;;;;;5084684;28;20414;-86